WEW weather

Wee Waa Airport
New South Wales, Australia

Public forecast

Using degrees Celsius for public forecast. Weather courtesy of forecast.io.

METAR (pilot weather report)

Closest report is Narrabri Airport, 22.0 nm (40.8 km) E. Retrieved 2019/06/20 21:00 UTC (23 minutes ago):

YNBR 202100Z AUTO 00000KT 9999 // NCD M05/M07 Q1023

TAF (pilot weather forecast)

Closest forecast is Tamworth Airport, 89.3 nm (165.4 km) SE. Retrieved 2019/06/20 18:36 UTC (3 hours ago):

TAF TAF YSTW 201722Z 2018/2112 VRB03KT CAVOK BECMG 2100/2102 21008KT CAVOK BECMG 2108/2110 16005KT CAVOK